sensor_id;sensor_type;location;lat;lon;timestamp;pressure;altitude;pressure_sealevel;temperature;humidity
35226;BME280;21813;49.686;21.766;2023-02-18T00:19:19;97919.56;;;4.66;100.00
35226;BME280;21813;49.686;21.766;2023-02-18T06:39:12;98094.41;;;7.25;79.04
35226;BME280;21813;49.686;21.766;2023-02-18T09:42:33;98125.66;;;9.63;50.26
35226;BME280;21813;49.686;21.766;2023-02-18T09:45:05;98117.00;;;9.73;50.67
35226;BME280;21813;49.686;21.766;2023-02-18T09:57:41;98099.13;;;9.80;50.12
35226;BME280;21813;49.686;21.766;2023-02-18T11:32:55;98044.03;;;9.64;49.76
35226;BME280;21813;49.686;21.766;2023-02-18T13:35:57;97989.78;;;8.84;69.72
35226;BME280;21813;49.686;21.766;2023-02-18T14:59:47;97856.56;;;8.51;81.34
35226;BME280;21813;49.686;21.766;2023-02-18T15:02:22;97841.91;;;8.50;81.28
35226;BME280;21813;49.686;21.766;2023-02-18T15:04:49;97836.72;;;8.50;81.30
35226;BME280;21813;49.686;21.766;2023-02-18T15:07:18;97826.44;;;8.48;80.95
35226;BME280;21813;49.686;21.766;2023-02-18T15:09:52;97814.41;;;8.47;80.89
35226;BME280;21813;49.686;21.766;2023-02-18T15:23:47;97792.13;;;8.45;81.76
35226;BME280;21813;49.686;21.766;2023-02-18T15:26:52;97785.16;;;8.45;81.98
35226;BME280;21813;49.686;21.766;2023-02-18T15:29:32;97778.41;;;8.42;81.83
35226;BME280;21813;49.686;21.766;2023-02-18T15:43:28;97757.91;;;8.39;82.67
35226;BME280;21813;49.686;21.766;2023-02-18T15:53:42;97716.34;;;8.28;83.29
35226;BME280;21813;49.686;21.766;2023-02-18T15:56:56;97722.28;;;8.30;84.38
35226;BME280;21813;49.686;21.766;2023-02-18T16:26:54;97664.03;;;7.80;95.27
35226;BME280;21813;49.686;21.766;2023-02-18T17:39:17;97569.97;;;7.35;100.00
35226;BME280;21813;49.686;21.766;2023-02-18T18:48:56;97565.34;;;6.96;100.00
35226;BME280;21813;49.686;21.766;2023-02-18T18:55:48;97574.06;;;7.06;100.00
35226;BME280;21813;49.686;21.766;2023-02-18T19:01:29;97552.97;;;6.99;100.00
35226;BME280;21813;49.686;21.766;2023-02-18T19:04:05;97566.97;;;7.08;100.00
35226;BME280;21813;49.686;21.766;2023-02-18T19:13:54;97561.31;;;7.14;100.00
35226;BME280;21813;49.686;21.766;2023-02-18T19:17:44;97556.34;;;7.22;100.00
35226;BME280;21813;49.686;21.766;2023-02-18T19:28:14;97564.16;;;7.54;100.00
35226;BME280;21813;49.686;21.766;2023-02-18T19:41:06;97575.03;;;7.80;100.00
35226;BME280;21813;49.686;21.766;2023-02-18T19:43:32;97562.75;;;7.82;100.00
35226;BME280;21813;49.686;21.766;2023-02-18T19:45:58;97572.34;;;7.91;100.00
35226;BME280;21813;49.686;21.766;2023-02-18T19:48:25;97559.75;;;7.86;100.00
35226;BME280;21813;49.686;21.766;2023-02-18T19:50:51;97568.00;;;7.91;100.00
35226;BME280;21813;49.686;21.766;2023-02-18T19:53:25;97573.06;;;7.93;100.00
35226;BME280;21813;49.686;21.766;2023-02-18T19:56:09;97576.22;;;7.96;100.00
35226;BME280;21813;49.686;21.766;2023-02-18T19:58:39;97577.88;;;7.97;100.00
35226;BME280;21813;49.686;21.766;2023-02-18T20:01:23;97589.53;;;8.03;100.00
35226;BME280;21813;49.686;21.766;2023-02-18T20:03:50;97587.63;;;8.05;100.00
35226;BME280;21813;49.686;21.766;2023-02-18T20:06:17;97585.03;;;8.05;100.00
35226;BME280;21813;49.686;21.766;2023-02-18T20:08:44;97596.22;;;8.06;100.00
35226;BME280;21813;49.686;21.766;2023-02-18T20:11:10;97589.03;;;8.09;100.00
35226;BME280;21813;49.686;21.766;2023-02-18T20:13:39;97590.66;;;8.10;100.00
35226;BME280;21813;49.686;21.766;2023-02-18T20:16:09;97600.00;;;8.13;100.00
35226;BME280;21813;49.686;21.766;2023-02-18T20:19:02;97589.72;;;8.11;100.00
35226;BME280;21813;49.686;21.766;2023-02-18T20:21:42;97584.53;;;8.11;100.00
35226;BME280;21813;49.686;21.766;2023-02-18T20:25:32;97593.84;;;8.14;100.00
35226;BME280;21813;49.686;21.766;2023-02-18T20:28:23;97596.19;;;8.17;100.00
35226;BME280;21813;49.686;21.766;2023-02-18T20:30:49;97601.25;;;8.18;100.00
35226;BME280;21813;49.686;21.766;2023-02-18T20:33:21;97608.09;;;8.19;100.00
35226;BME280;21813;49.686;21.766;2023-02-18T20:35:56;97593.91;;;8.23;100.00
35226;BME280;21813;49.686;21.766;2023-02-18T20:38:33;97601.13;;;8.20;100.00
35226;BME280;21813;49.686;21.766;2023-02-18T20:41:49;97605.38;;;8.21;100.00
35226;BME280;21813;49.686;21.766;2023-02-18T20:44:25;97608.41;;;8.26;100.00
35226;BME280;21813;49.686;21.766;2023-02-18T20:47:14;97612.44;;;8.30;100.00
35226;BME280;21813;49.686;21.766;2023-02-18T20:50:07;97617.25;;;8.34;100.00
35226;BME280;21813;49.686;21.766;2023-02-18T20:52:32;97613.13;;;8.32;100.00
35226;BME280;21813;49.686;21.766;2023-02-18T21:20:13;97670.97;;;8.55;100.00
35226;BME280;21813;49.686;21.766;2023-02-18T21:22:39;97680.53;;;8.54;100.00
35226;BME280;21813;49.686;21.766;2023-02-18T21:25:07;97694.44;;;8.53;100.00
35226;BME280;21813;49.686;21.766;2023-02-18T21:27:53;97690.47;;;8.49;100.00
35226;BME280;21813;49.686;21.766;2023-02-18T21:30:42;97701.22;;;8.45;100.00
35226;BME280;21813;49.686;21.766;2023-02-18T21:42:48;97720.91;;;8.15;100.00
35226;BME280;21813;49.686;21.766;2023-02-18T21:45:23;97728.00;;;8.13;100.00
35226;BME280;21813;49.686;21.766;2023-02-18T21:47:51;97718.09;;;8.07;100.00
35226;BME280;21813;49.686;21.766;2023-02-18T21:50:31;97714.22;;;8.02;100.00
35226;BME280;21813;49.686;21.766;2023-02-18T21:59:37;97718.81;;;7.98;100.00
35226;BME280;21813;49.686;21.766;2023-02-18T22:05:58;97710.34;;;7.96;100.00
35226;BME280;21813;49.686;21.766;2023-02-18T22:08:29;97712.81;;;7.97;100.00
35226;BME280;21813;49.686;21.766;2023-02-18T22:18:43;97720.50;;;7.99;100.00
35226;BME280;21813;49.686;21.766;2023-02-18T22:21:09;97728.97;;;8.01;100.00
35226;BME280;21813;49.686;21.766;2023-02-18T22:24:23;97720.50;;;7.99;100.00
35226;BME280;21813;49.686;21.766;2023-02-18T22:26:49;97726.50;;;7.99;100.00
35226;BME280;21813;49.686;21.766;2023-02-18T22:29:30;97738.13;;;8.05;100.00
35226;BME280;21813;49.686;21.766;2023-02-18T22:31:57;97731.31;;;8.04;100.00
35226;BME280;21813;49.686;21.766;2023-02-18T22:34:24;97737.09;;;8.08;100.00
35226;BME280;21813;49.686;21.766;2023-02-18T22:36:53;97743.78;;;8.10;100.00
35226;BME280;21813;49.686;21.766;2023-02-18T22:39:33;97745.69;;;8.08;100.00
35226;BME280;21813;49.686;21.766;2023-02-18T22:42:14;97757.75;;;8.09;100.00
35226;BME280;21813;49.686;21.766;2023-02-18T22:48:16;97773.53;;;8.06;100.00
35226;BME280;21813;49.686;21.766;2023-02-18T22:50:42;97780.50;;;8.06;100.00
35226;BME280;21813;49.686;21.766;2023-02-18T22:53:08;97788.16;;;8.07;100.00
35226;BME280;21813;49.686;21.766;2023-02-18T22:55:43;97800.44;;;8.05;100.00
35226;BME280;21813;49.686;21.766;2023-02-18T22:58:11;97804.94;;;8.03;100.00
35226;BME280;21813;49.686;21.766;2023-02-18T23:00:57;97791.22;;;8.01;100.00
35226;BME280;21813;49.686;21.766;2023-02-18T23:03:44;97778.97;;;7.92;100.00
35226;BME280;21813;49.686;21.766;2023-02-18T23:12:27;97785.38;;;7.88;100.00
35226;BME280;21813;49.686;21.766;2023-02-18T23:14:58;97795.75;;;7.88;100.00
35226;BME280;21813;49.686;21.766;2023-02-18T23:17:26;97796.69;;;7.87;100.00
35226;BME280;21813;49.686;21.766;2023-02-18T23:19:52;97809.66;;;7.87;100.00
35226;BME280;21813;49.686;21.766;2023-02-18T23:22:25;97811.56;;;7.85;100.00
35226;BME280;21813;49.686;21.766;2023-02-18T23:24:55;97808.03;;;7.86;100.00
35226;BME280;21813;49.686;21.766;2023-02-18T23:34:37;97820.28;;;7.84;100.00
35226;BME280;21813;49.686;21.766;2023-02-18T23:37:50;97830.88;;;7.92;100.00
35226;BME280;21813;49.686;21.766;2023-02-18T23:40:45;97835.13;;;7.93;100.00
35226;BME280;21813;49.686;21.766;2023-02-18T23:43:42;97826.63;;;7.91;100.00
35226;BME280;21813;49.686;21.766;2023-02-18T23:54:14;97835.97;;;7.93;100.00
